Marysville, Ohio
Current Conditions -  °F | °C
As of 10:33 PM on Monday 20 Oct 2014 (Local Time) from KMRT Reporting Station
Broken Clouds Broken Clouds  
Wind Chill: 46°   Ceiling: 7000
Heat Index: 48°   Visibility: 1.2mi
Dew Point: 46°   Wind: 5mph
Humidity: 92%   Direction: 280°W
Pressure: 29.88"   Gusts: NA
Location:  40.24°N, 83.37°W
Report Text: KMRT 210233Z AUTO 28004KT 1 1/4SM BKN070 09/08 A2988 RMK AO2 T00890076
Loading
Personal Weather Stations






























Interactive Weather Map New forecast layout! Learn more

10-Day Weather Forecast

Advertisements
Track Severe Weather on mobile